createdAt,value
2019-02-14T00:01:26.188Z,95.90
2019-02-14T00:03:54.254Z,95.90
2019-02-14T00:06:21.743Z,95.90
2019-02-14T00:08:49.900Z,95.90
2019-02-14T00:11:17.789Z,95.80
2019-02-14T00:13:45.279Z,95.90
2019-02-14T00:16:13.302Z,96.20
2019-02-14T00:18:41.131Z,95.80
2019-02-14T00:21:09.136Z,95.80
2019-02-14T00:23:37.470Z,95.70
2019-02-14T00:26:06.278Z,95.70
2019-02-14T00:28:33.966Z,95.60
2019-02-14T00:31:01.521Z,95.70
2019-02-14T00:33:29.704Z,95.70
2019-02-14T00:35:57.456Z,95.60
2019-02-14T00:38:24.974Z,95.60
2019-02-14T00:40:52.531Z,95.50
2019-02-14T00:43:20.053Z,95.50
2019-02-14T00:45:48.386Z,95.50
2019-02-14T00:48:16.212Z,95.50
2019-02-14T00:50:44.326Z,95.40
2019-02-14T00:53:31.036Z,95.50
2019-02-14T00:56:17.292Z,95.70
2019-02-14T00:58:45.289Z,95.40
2019-02-14T01:01:12.601Z,95.40
2019-02-14T01:03:40.319Z,95.40
2019-02-14T01:06:07.830Z,95.40
2019-02-14T01:08:35.523Z,95.40
2019-02-14T01:11:02.886Z,95.10
2019-02-14T01:13:30.358Z,95.40
2019-02-14T01:15:58.122Z,95.50
2019-02-14T01:18:25.806Z,95.60
2019-02-14T01:20:53.832Z,95.50
2019-02-14T01:23:21.741Z,95.50
2019-02-14T01:25:49.809Z,95.50
2019-02-14T01:28:18.542Z,95.50
2019-02-14T01:30:46.090Z,95.50
2019-02-14T01:33:13.566Z,95.50
2019-02-14T01:35:42.153Z,95.80
2019-02-14T01:38:09.922Z,95.50
2019-02-14T01:40:37.680Z,95.50
2019-02-14T01:43:05.228Z,95.50
2019-02-14T01:45:32.835Z,95.50
2019-02-14T01:48:00.743Z,95.60
2019-02-14T01:50:28.760Z,95.60
2019-02-14T01:52:56.975Z,95.80
2019-02-14T01:55:24.782Z,95.60
2019-02-14T01:57:53.482Z,95.50
2019-02-14T02:00:21.008Z,95.40
2019-02-14T02:02:48.910Z,95.40
2019-02-14T02:05:19.516Z,95.50
2019-02-14T02:07:47.061Z,95.40
2019-02-14T02:10:15.911Z,95.30
2019-02-14T02:12:43.554Z,95.40
2019-02-14T02:15:12.549Z,95.40
2019-02-14T02:17:40.464Z,95.40
2019-02-14T02:20:08.005Z,95.30
2019-02-14T02:22:35.789Z,95.40
2019-02-14T02:25:04.061Z,95.00
2019-02-14T02:27:31.792Z,95.30
2019-02-14T02:29:59.298Z,95.20
2019-02-14T02:32:27.132Z,95.20
2019-02-14T02:34:54.670Z,95.20
2019-02-14T02:37:21.970Z,95.20
2019-02-14T02:39:50.057Z,95.20
2019-02-14T02:42:17.832Z,95.10
2019-02-14T02:44:45.223Z,95.20
2019-02-14T02:47:13.366Z,95.10
2019-02-14T02:49:40.840Z,95.10
2019-02-14T02:52:08.891Z,95.00
2019-02-14T02:54:36.974Z,95.00
2019-02-14T02:57:04.325Z,95.00
2019-02-14T02:59:31.766Z,95.00
2019-02-14T03:01:59.341Z,94.90
2019-02-14T03:04:27.012Z,94.80
2019-02-14T03:06:55.201Z,94.90
2019-02-14T03:09:23.359Z,94.80
2019-02-14T03:11:51.360Z,94.90
2019-02-14T03:14:19.709Z,94.90
2019-02-14T03:16:48.360Z,94.80
2019-02-14T03:19:16.055Z,95.00
2019-02-14T03:21:44.021Z,94.80
2019-02-14T03:24:11.949Z,94.70
2019-02-14T03:26:39.555Z,94.70
2019-02-14T03:29:07.228Z,94.70
2019-02-14T03:31:35.105Z,94.70
2019-02-14T03:34:02.547Z,94.50
2019-02-14T03:36:30.599Z,94.50
2019-02-14T03:38:59.190Z,94.50
2019-02-14T03:41:26.975Z,94.40
2019-02-14T03:43:54.489Z,94.50
2019-02-14T03:46:22.790Z,94.70
2019-02-14T03:48:50.385Z,94.70
2019-02-14T03:51:18.204Z,94.60
2019-02-14T03:53:45.707Z,94.50
2019-02-14T03:56:13.270Z,94.50
2019-02-14T03:58:40.894Z,94.50
2019-02-14T04:01:08.360Z,94.50
2019-02-14T04:03:36.498Z,94.50
2019-02-14T04:06:05.429Z,94.50
2019-02-14T04:08:32.883Z,94.50
2019-02-14T04:11:00.762Z,94.50
2019-02-14T04:13:28.568Z,94.50
2019-02-14T04:15:56.877Z,94.60
2019-02-14T04:18:24.364Z,94.60
2019-02-14T04:20:51.658Z,94.50
2019-02-14T04:23:19.152Z,94.50
2019-02-14T04:25:47.616Z,94.50
2019-02-14T04:28:15.397Z,94.50
2019-02-14T04:30:43.619Z,94.50
2019-02-14T04:33:11.335Z,94.40
2019-02-14T04:35:39.300Z,94.40
2019-02-14T04:38:07.592Z,94.40
2019-02-14T04:40:35.325Z,94.30
2019-02-14T04:43:02.928Z,94.40
2019-02-14T04:45:30.668Z,94.40
2019-02-14T04:47:58.433Z,94.30
2019-02-14T04:50:25.998Z,94.30
2019-02-14T04:52:53.765Z,94.20
2019-02-14T04:55:21.433Z,94.20
2019-02-14T04:57:49.847Z,94.20
2019-02-14T05:00:17.701Z,94.40
2019-02-14T05:02:45.525Z,94.20
2019-02-14T05:05:13.301Z,94.50
2019-02-14T05:07:41.388Z,94.30
2019-02-14T05:10:08.918Z,94.20
2019-02-14T05:12:36.932Z,94.20
2019-02-14T05:15:05.016Z,94.20
2019-02-14T05:17:33.879Z,94.20
2019-02-14T05:20:01.699Z,94.30
2019-02-14T05:22:29.685Z,94.20
2019-02-14T05:24:57.154Z,94.20
2019-02-14T05:27:24.884Z,94.20
2019-02-14T05:29:52.591Z,94.10
2019-02-14T05:32:20.424Z,94.20
2019-02-14T05:34:47.705Z,94.20
2019-02-14T05:37:15.687Z,94.20
2019-02-14T05:39:43.091Z,94.10
2019-02-14T05:42:11.351Z,94.00
2019-02-14T05:44:39.352Z,94.00
2019-02-14T05:47:07.328Z,94.00
2019-02-14T05:49:35.091Z,93.90
2019-02-14T05:52:02.851Z,93.90
2019-02-14T05:54:30.605Z,93.90
2019-02-14T05:56:58.195Z,93.90
2019-02-14T05:59:26.549Z,93.90
2019-02-14T06:01:54.109Z,94.00
2019-02-14T06:04:22.261Z,94.00
2019-02-14T06:06:50.354Z,94.00
2019-02-14T06:09:18.344Z,93.90
2019-02-14T06:11:46.790Z,93.90
2019-02-14T06:14:15.220Z,93.90
2019-02-14T06:16:43.071Z,93.90
2019-02-14T06:19:10.400Z,94.00
2019-02-14T06:21:37.878Z,94.00
2019-02-14T06:24:05.985Z,93.90
2019-02-14T06:26:33.912Z,93.90
2019-02-14T06:29:01.412Z,93.90
2019-02-14T06:31:29.253Z,93.90
2019-02-14T06:33:57.429Z,94.00
2019-02-14T06:36:26.429Z,93.80
2019-02-14T06:38:54.417Z,93.80
2019-02-14T06:41:21.965Z,93.90
2019-02-14T06:43:50.626Z,93.90
2019-02-14T06:46:18.412Z,93.80
2019-02-14T06:48:46.365Z,93.80
2019-02-14T06:51:14.765Z,93.80
2019-02-14T06:53:42.900Z,93.60
2019-02-14T06:56:10.773Z,93.60
2019-02-14T06:58:38.343Z,93.60
2019-02-14T07:01:05.991Z,93.50
2019-02-14T07:03:33.652Z,93.60
2019-02-14T07:06:01.895Z,94.00
2019-02-14T07:08:29.588Z,93.70
2019-02-14T07:10:57.711Z,93.50
2019-02-14T07:13:25.602Z,93.60
2019-02-14T07:15:53.561Z,93.70
2019-02-14T07:18:21.219Z,93.70
2019-02-14T07:20:49.185Z,93.60
2019-02-14T07:23:16.838Z,93.50
2019-02-14T07:25:44.874Z,93.50
2019-02-14T07:28:12.929Z,93.60
2019-02-14T07:30:41.105Z,93.60
2019-02-14T07:33:08.820Z,93.70
2019-02-14T07:35:37.008Z,93.70
2019-02-14T07:38:05.793Z,93.80
2019-02-14T07:40:33.834Z,93.80
2019-02-14T07:43:02.082Z,93.60
2019-02-14T07:45:29.647Z,93.70
2019-02-14T07:47:58.007Z,93.70
2019-02-14T07:50:25.640Z,93.70
2019-02-14T07:52:53.751Z,93.70
2019-02-14T07:55:21.537Z,93.70
2019-02-14T07:57:49.486Z,93.60
2019-02-14T08:00:17.522Z,93.60
2019-02-14T08:02:45.162Z,93.60
2019-02-14T08:05:13.934Z,93.60
2019-02-14T08:07:42.043Z,93.60
2019-02-14T08:10:11.592Z,93.60
2019-02-14T08:12:39.777Z,93.70
2019-02-14T08:15:09.796Z,93.70
2019-02-14T08:17:39.677Z,93.60
2019-02-14T08:20:08.036Z,93.70
2019-02-14T08:22:35.797Z,93.70
2019-02-14T08:25:04.099Z,93.70
2019-02-14T08:27:33.197Z,93.70
2019-02-14T08:30:01.262Z,93.70
2019-02-14T08:32:29.135Z,93.80
2019-02-14T08:34:56.929Z,93.80
2019-02-14T08:37:24.600Z,93.80
2019-02-14T08:39:53.465Z,93.80
2019-02-14T08:42:21.396Z,93.80
2019-02-14T08:44:49.800Z,93.70
2019-02-14T08:47:17.888Z,93.80
2019-02-14T08:49:45.929Z,93.90
2019-02-14T08:52:14.622Z,93.90
2019-02-14T08:54:43.036Z,93.90
2019-02-14T08:57:11.807Z,93.90
2019-02-14T08:59:39.763Z,93.80
2019-02-14T09:02:08.453Z,93.90
2019-02-14T09:04:36.278Z,93.80
2019-02-14T09:07:11.409Z,93.80
2019-02-14T09:09:40.770Z,93.80
2019-02-14T09:12:09.362Z,93.70
2019-02-14T09:14:39.049Z,93.50
2019-02-14T09:17:07.002Z,93.50
2019-02-14T09:19:34.670Z,93.50
2019-02-14T09:22:02.648Z,93.60
2019-02-14T09:24:30.625Z,93.80
2019-02-14T09:26:59.492Z,93.90
2019-02-14T09:29:27.478Z,93.90
2019-02-14T09:31:55.965Z,93.90
2019-02-14T09:34:24.770Z,93.90
2019-02-14T09:36:53.424Z,93.90
2019-02-14T09:39:21.565Z,93.70
2019-02-14T09:41:49.231Z,93.90
2019-02-14T09:44:17.332Z,93.70
2019-02-14T09:46:45.473Z,93.70
2019-02-14T09:49:13.473Z,93.60
2019-02-14T09:51:41.637Z,93.20
2019-02-14T09:54:09.683Z,93.40
2019-02-14T09:56:37.614Z,93.30
2019-02-14T09:59:05.247Z,93.40
2019-02-14T10:01:33.247Z,93.40
2019-02-14T10:04:01.004Z,93.50
2019-02-14T10:06:36.355Z,93.50
2019-02-14T10:09:00.541Z,93.50
2019-02-14T10:11:28.609Z,93.60
2019-02-14T10:13:56.519Z,93.60
2019-02-14T10:16:24.413Z,93.70
2019-02-14T10:18:52.426Z,93.70
2019-02-14T10:21:20.198Z,93.60
2019-02-14T10:23:47.938Z,93.60
2019-02-14T10:26:15.806Z,93.60
2019-02-14T10:28:46.984Z,93.50
2019-02-14T10:31:18.498Z,93.40
2019-02-14T10:33:46.293Z,93.40
2019-02-14T10:36:14.201Z,93.30
2019-02-14T10:38:41.850Z,93.30
2019-02-14T10:41:10.220Z,93.30
2019-02-14T10:43:38.224Z,93.40
2019-02-14T10:46:10.382Z,93.40
2019-02-14T10:48:38.488Z,93.40
2019-02-14T10:51:05.966Z,93.40
2019-02-14T10:53:34.341Z,93.40
2019-02-14T10:56:02.182Z,93.40
2019-02-14T10:58:30.025Z,93.40
2019-02-14T11:00:58.007Z,93.40
2019-02-14T11:03:25.917Z,93.40
2019-02-14T11:05:54.203Z,93.30
2019-02-14T11:08:31.092Z,93.50
2019-02-14T11:10:52.020Z,93.50
2019-02-14T11:13:19.920Z,93.80
2019-02-14T11:15:48.380Z,93.50
2019-02-14T11:18:17.387Z,93.50
2019-02-14T11:20:45.295Z,93.40
2019-02-14T11:23:13.328Z,93.50
2019-02-14T11:25:41.578Z,93.60
2019-02-14T11:28:09.378Z,93.60
2019-02-14T11:30:37.717Z,93.70
2019-02-14T11:33:05.342Z,93.60
2019-02-14T11:35:33.971Z,93.70
2019-02-14T11:38:01.578Z,93.70
2019-02-14T11:40:29.390Z,93.80
2019-02-14T11:42:57.358Z,93.80
2019-02-14T11:45:25.256Z,93.80
2019-02-14T11:47:53.934Z,93.70
2019-02-14T11:50:22.083Z,93.70
2019-02-14T11:52:50.083Z,93.70
2019-02-14T11:55:18.617Z,93.70
2019-02-14T11:57:47.531Z,93.50
2019-02-14T12:00:21.342Z,93.50
2019-02-14T12:02:55.488Z,93.30
2019-02-14T12:05:21.776Z,93.20
2019-02-14T12:07:51.497Z,93.20
2019-02-14T12:10:20.603Z,93.20
2019-02-14T12:12:48.767Z,93.20
2019-02-14T12:15:17.574Z,93.20
2019-02-14T12:17:49.402Z,93.20
2019-02-14T12:20:21.807Z,93.20
2019-02-14T12:22:53.712Z,93.10
2019-02-14T12:25:27.464Z,93.20
2019-02-14T12:27:59.763Z,93.10
2019-02-14T12:30:30.730Z,93.20
2019-02-14T12:33:01.156Z,93.20
2019-02-14T12:35:31.898Z,93.10
2019-02-14T12:38:03.038Z,92.40
2019-02-14T12:40:35.397Z,92.30
2019-02-14T12:43:04.913Z,92.20
2019-02-14T12:45:41.003Z,92.20
2019-02-14T12:48:09.246Z,92.20
2019-02-14T12:50:36.893Z,92.10
2019-02-14T12:53:04.643Z,92.10
2019-02-14T12:55:32.761Z,92.10
2019-02-14T12:58:05.752Z,92.10
2019-02-14T13:00:34.451Z,92.10
2019-02-14T13:03:02.470Z,92.00
2019-02-14T13:05:29.891Z,91.90
2019-02-14T13:07:57.560Z,91.90
2019-02-14T13:10:26.221Z,91.90
2019-02-14T13:12:53.873Z,91.80
2019-02-14T13:15:22.826Z,91.80
2019-02-14T13:17:50.718Z,91.80
2019-02-14T13:20:18.997Z,91.80
2019-02-14T13:22:46.986Z,91.80
2019-02-14T13:25:15.306Z,91.70
2019-02-14T13:27:43.226Z,91.70
2019-02-14T13:30:13.615Z,91.70
2019-02-14T13:32:42.474Z,91.50
2019-02-14T13:35:10.334Z,91.50
2019-02-14T13:37:40.079Z,91.40
2019-02-14T13:40:08.688Z,91.30
2019-02-14T13:42:36.713Z,91.20
2019-02-14T13:45:06.299Z,91.10
2019-02-14T13:47:33.928Z,91.00
2019-02-14T13:50:01.538Z,90.90
2019-02-14T13:52:29.876Z,90.70
2019-02-14T13:54:58.109Z,91.00
2019-02-14T13:57:25.906Z,90.70
2019-02-14T13:59:54.651Z,90.80
2019-02-14T14:02:22.747Z,90.90
2019-02-14T14:04:50.995Z,91.00
2019-02-14T14:07:19.285Z,91.20
2019-02-14T14:09:47.057Z,91.20
2019-02-14T14:12:15.774Z,91.30
2019-02-14T14:14:43.723Z,91.40
2019-02-14T14:17:11.437Z,91.30
2019-02-14T14:19:39.270Z,91.20
2019-02-14T14:22:07.453Z,90.90
2019-02-14T14:24:35.344Z,90.90
2019-02-14T14:27:03.257Z,91.00
2019-02-14T14:29:31.766Z,90.90
2019-02-14T14:31:59.953Z,90.90
2019-02-14T14:34:28.008Z,90.90
2019-02-14T14:36:56.063Z,90.80
2019-02-14T14:39:24.043Z,90.80
2019-02-14T14:41:52.542Z,90.80
2019-02-14T14:44:48.386Z,90.60
2019-02-14T14:47:18.652Z,90.50
2019-02-14T14:49:48.089Z,90.60
2019-02-14T14:52:16.321Z,90.70
2019-02-14T14:54:45.247Z,90.70
2019-02-14T14:57:13.334Z,90.70
2019-02-14T14:59:41.309Z,90.80
2019-02-14T15:02:09.038Z,90.70
2019-02-14T15:04:36.869Z,91.00
2019-02-14T15:07:04.875Z,90.60
2019-02-14T15:09:32.459Z,90.60
2019-02-14T15:12:01.640Z,90.50
2019-02-14T15:14:29.763Z,90.50
2019-02-14T15:16:58.426Z,90.40
2019-02-14T15:19:25.889Z,90.30
2019-02-14T15:21:56.922Z,90.20
2019-02-14T15:24:25.414Z,90.20
2019-02-14T15:26:53.512Z,90.10
2019-02-14T15:29:21.597Z,90.10
2019-02-14T15:31:50.108Z,90.00
2019-02-14T15:34:18.250Z,89.90
2019-02-14T15:36:47.217Z,89.80
2019-02-14T15:39:15.489Z,89.70
2019-02-14T15:41:43.583Z,89.60
2019-02-14T15:44:11.065Z,89.60
2019-02-14T15:46:39.247Z,89.80
2019-02-14T15:49:07.266Z,90.00
2019-02-14T15:51:35.079Z,90.10
2019-02-14T15:54:03.264Z,90.10
2019-02-14T15:56:31.590Z,90.20
2019-02-14T15:59:00.393Z,90.30
2019-02-14T16:01:29.805Z,90.30
2019-02-14T16:03:58.010Z,90.40
2019-02-14T16:06:27.847Z,90.40
2019-02-14T16:08:55.446Z,90.30
2019-02-14T16:11:23.455Z,90.50
2019-02-14T16:13:52.830Z,90.10
2019-02-14T16:16:22.586Z,89.80
2019-02-14T16:18:51.051Z,89.30
2019-02-14T16:21:19.521Z,88.80
2019-02-14T16:23:47.372Z,88.40
2019-02-14T16:26:15.360Z,88.30
2019-02-14T16:28:44.631Z,88.40
2019-02-14T16:31:12.637Z,88.50
2019-02-14T16:33:40.425Z,88.60
2019-02-14T16:36:08.464Z,88.60
2019-02-14T16:38:37.182Z,89.00
2019-02-14T16:41:09.564Z,89.20
2019-02-14T16:43:37.587Z,89.40
2019-02-14T16:46:05.642Z,89.80
2019-02-14T16:48:33.273Z,89.90
2019-02-14T16:51:00.753Z,89.90
2019-02-14T16:53:29.076Z,90.00
2019-02-14T16:56:02.113Z,90.20
2019-02-14T16:58:27.870Z,90.30
2019-02-14T17:00:56.470Z,90.40
2019-02-14T17:03:24.727Z,90.40
2019-02-14T17:05:52.995Z,90.50
2019-02-14T17:08:22.022Z,90.70
2019-02-14T17:10:49.954Z,90.70
2019-02-14T17:13:18.139Z,90.80
2019-02-14T17:15:46.414Z,90.90
2019-02-14T17:18:14.107Z,90.80
2019-02-14T17:20:41.972Z,90.80
2019-02-14T17:23:09.856Z,90.90
2019-02-14T17:25:37.921Z,91.00
2019-02-14T17:28:05.961Z,91.00
2019-02-14T17:30:33.960Z,91.00
2019-02-14T17:33:01.997Z,91.10
2019-02-14T17:35:29.705Z,91.20
2019-02-14T17:37:57.611Z,91.20
2019-02-14T17:40:26.322Z,91.20
2019-02-14T17:42:54.233Z,91.20
2019-02-14T17:45:22.119Z,91.40
2019-02-14T17:47:49.915Z,91.50
2019-02-14T17:50:17.484Z,91.50
2019-02-14T17:52:45.102Z,91.50
2019-02-14T17:55:12.892Z,91.50
2019-02-14T17:57:40.864Z,91.60
2019-02-14T18:00:09.481Z,91.60
2019-02-14T18:02:37.040Z,91.50
2019-02-14T18:05:05.717Z,91.90
2019-02-14T18:07:33.574Z,91.60
2019-02-14T18:10:01.536Z,91.60
2019-02-14T18:12:31.290Z,91.60
2019-02-14T18:14:58.575Z,91.60
2019-02-14T18:17:26.401Z,91.70
2019-02-14T18:19:54.050Z,91.50
2019-02-14T18:22:22.130Z,91.50
2019-02-14T18:24:49.792Z,91.30
2019-02-14T18:27:17.594Z,91.30
2019-02-14T18:29:46.195Z,91.00
2019-02-14T18:32:14.329Z,91.50
2019-02-14T18:34:42.234Z,91.20
2019-02-14T18:37:09.739Z,91.10
2019-02-14T18:39:37.751Z,90.90
2019-02-14T18:42:06.342Z,90.80
2019-02-14T18:44:34.168Z,90.70
2019-02-14T18:47:01.906Z,90.60
2019-02-14T18:49:29.622Z,90.40
2019-02-14T18:51:57.526Z,90.30
2019-02-14T18:54:25.527Z,90.00
2019-02-14T18:56:53.848Z,89.10
2019-02-14T18:59:22.644Z,88.40
2019-02-14T19:01:50.607Z,88.40
2019-02-14T19:04:18.492Z,88.10
2019-02-14T19:06:46.067Z,87.80
2019-02-14T19:09:13.854Z,87.30
2019-02-14T19:11:42.448Z,86.10
2019-02-14T19:14:10.728Z,84.90
2019-02-14T19:16:38.275Z,84.60
2019-02-14T19:19:06.072Z,82.90
2019-02-14T19:21:33.434Z,82.10
2019-02-14T19:24:01.767Z,81.30
2019-02-14T19:26:30.032Z,80.50
2019-02-14T19:28:57.650Z,80.00
2019-02-14T19:31:26.355Z,80.00
2019-02-14T19:33:54.689Z,80.40
2019-02-14T19:36:23.074Z,80.90
2019-02-14T19:38:51.187Z,81.60
2019-02-14T19:41:25.401Z,81.30
2019-02-14T19:43:48.673Z,81.50
2019-02-14T19:46:16.301Z,81.00
2019-02-14T19:48:43.864Z,80.10
2019-02-14T19:51:11.287Z,79.60
2019-02-14T19:53:39.398Z,79.30
2019-02-14T19:56:07.201Z,79.80
2019-02-14T19:58:35.395Z,80.00
2019-02-14T20:01:04.836Z,80.70
2019-02-14T20:03:32.576Z,80.80
2019-02-14T20:05:59.878Z,80.40
2019-02-14T20:08:28.756Z,79.60
2019-02-14T20:10:57.386Z,79.20
2019-02-14T20:13:24.839Z,79.10
2019-02-14T20:15:52.628Z,78.90
2019-02-14T20:18:20.195Z,78.50
2019-02-14T20:20:48.500Z,78.10
2019-02-14T20:23:16.564Z,78.20
2019-02-14T20:25:44.726Z,77.80
2019-02-14T20:28:12.817Z,77.40
2019-02-14T20:30:40.268Z,77.30
2019-02-14T20:33:09.534Z,76.80
2019-02-14T20:35:38.017Z,76.80
2019-02-14T20:38:06.129Z,76.60
2019-02-14T20:40:33.890Z,76.50
2019-02-14T20:43:01.530Z,76.10
2019-02-14T20:45:29.545Z,76.10
2019-02-14T20:47:57.568Z,76.10
2019-02-14T20:50:25.621Z,76.10
2019-02-14T20:52:53.141Z,76.10
2019-02-14T20:55:21.036Z,76.60
2019-02-14T20:57:48.575Z,76.50
2019-02-14T21:00:35.253Z,76.70
2019-02-14T21:03:03.675Z,76.40
2019-02-14T21:05:31.340Z,76.40
2019-02-14T21:07:59.577Z,76.60
2019-02-14T21:10:27.600Z,76.50
2019-02-14T21:12:55.398Z,76.30
2019-02-14T21:15:24.156Z,76.50
2019-02-14T21:17:52.018Z,76.50
2019-02-14T21:20:19.628Z,76.50
2019-02-14T21:22:50.078Z,76.50
2019-02-14T21:25:22.480Z,76.60
2019-02-14T21:27:46.983Z,77.00
2019-02-14T21:30:15.170Z,76.00
2019-02-14T21:32:42.770Z,75.70
2019-02-14T21:35:10.702Z,75.90
2019-02-14T21:37:38.493Z,75.90
2019-02-14T21:40:07.467Z,75.90
2019-02-14T21:42:35.084Z,76.30
2019-02-14T21:45:03.530Z,77.20
2019-02-14T21:47:31.193Z,76.50
2019-02-14T21:49:58.710Z,76.20
2019-02-14T21:52:26.156Z,76.60
2019-02-14T21:54:54.055Z,76.50
2019-02-14T21:57:23.333Z,76.70
2019-02-14T21:59:51.566Z,76.70
2019-02-14T22:02:19.185Z,77.00
2019-02-14T22:04:47.019Z,77.20
2019-02-14T22:07:15.220Z,77.10
2019-02-14T22:09:43.109Z,77.00
2019-02-14T22:12:10.624Z,77.00
2019-02-14T22:14:38.684Z,77.10
2019-02-14T22:17:06.479Z,77.10
2019-02-14T22:19:34.031Z,77.70
2019-02-14T22:22:01.705Z,77.50
2019-02-14T22:24:29.206Z,77.70
2019-02-14T22:26:57.118Z,77.20
2019-02-14T22:29:24.697Z,77.30
2019-02-14T22:31:52.652Z,76.90
2019-02-14T22:34:20.684Z,76.70
2019-02-14T22:36:48.181Z,76.50
2019-02-14T22:39:16.193Z,76.80
2019-02-14T22:41:44.010Z,77.10
2019-02-14T22:44:11.571Z,77.60
2019-02-14T22:46:39.759Z,77.70
2019-02-14T22:49:07.322Z,77.70
2019-02-14T22:51:34.801Z,77.70
2019-02-14T22:54:02.986Z,78.00
2019-02-14T22:56:30.755Z,78.20
2019-02-14T22:58:58.356Z,78.40
2019-02-14T23:01:26.757Z,78.40
2019-02-14T23:03:57.824Z,78.60
2019-02-14T23:06:25.492Z,78.70
2019-02-14T23:08:53.742Z,79.10
2019-02-14T23:11:21.689Z,79.60
2019-02-14T23:13:49.077Z,78.60
2019-02-14T23:16:17.434Z,78.70
2019-02-14T23:18:45.373Z,78.60
2019-02-14T23:21:13.244Z,78.50
2019-02-14T23:23:40.824Z,79.20
2019-02-14T23:26:08.530Z,77.80
2019-02-14T23:28:36.465Z,77.90
2019-02-14T23:31:04.501Z,78.00
2019-02-14T23:33:32.183Z,78.80
2019-02-14T23:35:59.984Z,77.60
2019-02-14T23:38:27.938Z,78.20
2019-02-14T23:40:55.994Z,78.40
2019-02-14T23:43:23.745Z,78.30
2019-02-14T23:45:52.605Z,77.30
2019-02-14T23:48:20.197Z,78.30
2019-02-14T23:50:47.941Z,78.50
2019-02-14T23:53:15.514Z,78.70
2019-02-14T23:55:43.066Z,78.60
2019-02-14T23:58:10.633Z,78.70
